Time;durP1;ratioP1;P1;durP2;ratioP2;P2;SDS_P1;SDS_P2;PMS_P1;PMS_P2;Temp;Humidity;BMP_temperature;BMP_pressure;BME280_temperature;BME280_humidity;BME280_pressure;Samples;Min_cycle;Max_cycle;Signal;HPM_P1;HPM_P2
2021/08/31 00:02:25;;;;;;;35.38;27.25;;;15.40;99.90;;;;;;4997732;28;20093;-81
2021/08/31 00:04:52;;;;;;;33.20;26.45;;;15.40;99.90;;;;;;4999926;28;20050;-79
2021/08/31 00:07:19;;;;;;;36.08;26.85;;;15.40;99.90;;;;;;5000631;28;20097;-80
2021/08/31 00:09:47;;;;;;;36.58;26.63;;;15.30;99.90;;;;;;5002137;28;20050;-81
2021/08/31 00:12:14;;;;;;;35.30;28.08;;;15.20;99.90;;;;;;4998487;28;20644;-79
2021/08/31 00:14:41;;;;;;;37.28;27.83;;;15.20;99.90;;;;;;5002194;28;20522;-80
2021/08/31 00:17:09;;;;;;;34.90;27.75;;;15.20;99.90;;;;;;5000771;28;20100;-79
2021/08/31 00:19:37;;;;;;;39.50;28.75;;;15.20;99.90;;;;;;4999129;28;20065;-80
2021/08/31 00:22:04;;;;;;;40.35;28.42;;;15.10;99.90;;;;;;4999165;28;20135;-79
2021/08/31 00:24:31;;;;;;;37.00;28.33;;;15.10;99.90;;;;;;4998579;28;20125;-79
2021/08/31 00:26:58;;;;;;;36.17;27.52;;;15.10;99.90;;;;;;4998452;28;20148;-79
2021/08/31 00:29:25;;;;;;;39.22;27.33;;;15.10;99.90;;;;;;4998011;28;20137;-80
2021/08/31 00:31:52;;;;;;;36.00;27.55;;;15.10;99.90;;;;;;4997255;28;20127;-79
2021/08/31 00:34:20;;;;;;;36.40;27.48;;;15.10;99.90;;;;;;4994645;28;20074;-79
2021/08/31 00:36:47;;;;;;;36.83;26.60;;;15.10;99.90;;;;;;4994798;28;20129;-78
2021/08/31 00:39:14;;;;;;;36.13;27.83;;;15.10;99.90;;;;;;4994412;28;20057;-78
2021/08/31 00:41:41;;;;;;;39.22;27.25;;;15.00;99.90;;;;;;4994264;28;20503;-79
2021/08/31 00:44:17;;;;;;;36.78;27.38;;;15.00;99.90;;;;;;4994758;28;20050;-78
2021/08/31 00:46:44;;;;;;;40.80;28.15;;;15.00;99.90;;;;;;4994703;28;20137;-78
2021/08/31 00:49:11;;;;;;;37.80;27.13;;;14.90;99.90;;;;;;4993984;28;20062;-79
2021/08/31 00:51:39;;;;;;;38.75;27.20;;;14.90;99.90;;;;;;4994976;28;20490;-80
2021/08/31 00:54:07;;;;;;;36.72;27.55;;;14.90;99.90;;;;;;4994487;28;20090;-78
2021/08/31 00:56:34;;;;;;;34.72;27.85;;;14.90;99.90;;;;;;4996722;28;20096;-79
2021/08/31 00:59:05;;;;;;;37.50;28.25;;;14.80;99.90;;;;;;5028879;23;20053;-82
2021/08/31 01:01:35;;;;;;;39.30;29.20;;;14.80;99.90;;;;;;4993129;28;20046;-83
2021/08/31 01:04:04;;;;;;;41.80;29.00;;;14.80;99.90;;;;;;4979808;28;20107;-81
2021/08/31 01:06:32;;;;;;;33.15;27.20;;;14.70;99.90;;;;;;4979560;28;20102;-82
2021/08/31 01:09:11;;;;;;;38.63;29.15;;;14.80;99.90;;;;;;4978969;28;20047;-83
2021/08/31 01:11:43;;;;;;;36.55;27.42;;;14.70;99.90;;;;;;4981275;28;20054;-82
2021/08/31 01:14:13;;;;;;;36.23;28.27;;;14.70;99.90;;;;;;4981875;28;20062;-83
2021/08/31 01:16:40;;;;;;;42.08;30.38;;;14.70;99.90;;;;;;4980752;28;20055;-82
2021/08/31 01:19:15;;;;;;;38.35;29.88;;;14.60;99.90;;;;;;4982943;28;20134;-83
2021/08/31 01:22:05;;;;;;;41.03;29.85;;;14.60;99.90;;;;;;4986758;28;20055;-82
2021/08/31 01:24:44;;;;;;;40.78;30.25;;;14.50;99.90;;;;;;4985410;28;20050;-82
2021/08/31 01:27:18;;;;;;;39.97;30.50;;;14.50;99.90;;;;;;4985666;28;20322;-81
2021/08/31 01:30:07;;;;;;;39.55;28.60;;;14.50;99.90;;;;;;4985400;28;20046;-81
2021/08/31 01:32:34;;;;;;;40.92;30.25;;;14.40;99.90;;;;;;4981997;28;20662;-82
2021/08/31 01:35:01;;;;;;;44.53;30.85;;;14.40;99.90;;;;;;4981731;28;20047;-82
2021/08/31 01:37:28;;;;;;;44.30;31.70;;;14.40;99.90;;;;;;4981393;28;20047;-82
2021/08/31 01:39:56;;;;;;;45.15;32.67;;;14.30;99.90;;;;;;4982543;28;20054;-83
2021/08/31 01:42:25;;;;;;;44.08;32.05;;;14.30;99.90;;;;;;4981948;28;20078;-82
2021/08/31 01:44:51;;;;;;;46.88;32.28;;;14.30;99.90;;;;;;4984100;28;20580;-82
2021/08/31 01:47:23;;;;;;;47.53;31.45;;;14.30;99.90;;;;;;4984772;28;20054;-84
2021/08/31 01:49:53;;;;;;;46.22;33.78;;;14.20;99.90;;;;;;4988199;28;20109;-83
2021/08/31 01:52:19;;;;;;;44.53;32.50;;;14.20;99.90;;;;;;4986262;28;20153;-83
2021/08/31 01:54:46;;;;;;;47.05;32.20;;;14.20;99.90;;;;;;4984529;28;20499;-83
2021/08/31 01:57:13;;;;;;;47.33;32.17;;;14.20;99.90;;;;;;4984809;28;20542;-83
2021/08/31 01:59:41;;;;;;;49.10;34.65;;;14.20;99.90;;;;;;4982409;28;20065;-82
2021/08/31 02:02:08;;;;;;;47.75;33.45;;;14.20;99.90;;;;;;4985741;28;20065;-82
2021/08/31 02:04:35;;;;;;;52.20;35.05;;;14.20;99.90;;;;;;4985230;28;20078;-82
2021/08/31 02:07:02;;;;;;;48.50;33.92;;;14.20;99.90;;;;;;4985306;28;20239;-82
2021/08/31 02:09:29;;;;;;;48.58;35.30;;;14.20;99.90;;;;;;4984086;28;20051;-82
2021/08/31 02:11:56;;;;;;;49.60;35.47;;;14.20;99.90;;;;;;4984571;28;20109;-83
2021/08/31 02:14:23;;;;;;;53.92;35.92;;;14.20;99.90;;;;;;4986698;28;20058;-82
2021/08/31 02:16:51;;;;;;;53.40;36.17;;;14.20;99.90;;;;;;4990048;28;20240;-83
2021/08/31 02:19:18;;;;;;;54.10;36.60;;;14.20;99.90;;;;;;4993998;28;20082;-84
2021/08/31 02:21:50;;;;;;;51.22;35.90;;;14.20;99.90;;;;;;4992968;28;20051;-83
2021/08/31 02:24:23;;;;;;;52.88;36.55;;;14.20;99.90;;;;;;4991069;28;20055;-83
2021/08/31 02:27:05;;;;;;;54.38;36.22;;;14.20;99.90;;;;;;4983112;28;20055;-84
2021/08/31 02:29:36;;;;;;;60.83;36.90;;;14.20;99.90;;;;;;4980293;28;20051;-81
2021/08/31 02:32:06;;;;;;;55.37;35.57;;;14.10;99.90;;;;;;4977970;28;20054;-81
2021/08/31 02:34:33;;;;;;;56.83;38.17;;;14.20;99.90;;;;;;4978335;28;20051;-81
2021/08/31 02:37:00;;;;;;;55.33;38.28;;;14.20;99.90;;;;;;4978823;28;20448;-82
2021/08/31 02:39:28;;;;;;;58.75;37.08;;;14.10;99.90;;;;;;4979460;28;20047;-83
2021/08/31 02:41:55;;;;;;;56.13;39.03;;;14.10;99.90;;;;;;4979412;28;20233;-82
2021/08/31 02:44:22;;;;;;;59.55;39.58;;;14.10;99.90;;;;;;4978174;28;20076;-82
2021/08/31 02:46:49;;;;;;;57.67;40.33;;;14.10;99.90;;;;;;4977150;28;20054;-81
2021/08/31 02:49:17;;;;;;;55.90;38.78;;;14.00;99.90;;;;;;4976301;28;20130;-82
2021/08/31 02:51:44;;;;;;;59.33;39.85;;;14.10;99.90;;;;;;4976808;28;20061;-82
2021/08/31 02:54:11;;;;;;;60.50;40.47;;;14.00;99.90;;;;;;4975402;28;20082;-80
2021/08/31 02:56:38;;;;;;;60.80;41.30;;;14.00;99.90;;;;;;4977241;28;20097;-82
2021/08/31 02:59:05;;;;;;;58.60;41.08;;;14.00;99.90;;;;;;4983701;28;20047;-80
2021/08/31 03:01:34;;;;;;;62.10;41.47;;;14.00;99.90;;;;;;4982432;28;20575;-81
2021/08/31 03:04:02;;;;;;;61.65;42.53;;;14.00;99.90;;;;;;4981202;28;20054;-79
2021/08/31 03:06:31;;;;;;;68.07;42.13;;;13.90;99.90;;;;;;4978964;28;20532;-79
2021/08/31 03:08:59;;;;;;;61.13;43.22;;;13.90;99.90;;;;;;4977483;28;20043;-82
2021/08/31 03:11:27;;;;;;;60.53;44.42;;;13.90;99.90;;;;;;4978631;28;20085;-79
2021/08/31 03:13:55;;;;;;;66.30;45.97;;;13.90;99.90;;;;;;4981722;28;20124;-79
2021/08/31 03:16:22;;;;;;;63.42;42.92;;;13.90;99.90;;;;;;4980037;28;20061;-80
2021/08/31 03:18:49;;;;;;;66.80;44.40;;;13.90;99.90;;;;;;4980683;28;20143;-78
2021/08/31 03:21:16;;;;;;;70.85;46.13;;;13.90;99.90;;;;;;4977372;28;20086;-79
2021/08/31 03:23:45;;;;;;;65.53;44.90;;;13.90;99.90;;;;;;4986751;28;20051;-80
2021/08/31 03:26:12;;;;;;;72.55;47.28;;;13.80;99.90;;;;;;4989512;28;20046;-83
2021/08/31 03:31:43;;;;;;;71.32;48.05;;;13.80;99.90;;;;;;5094809;23;20050;-84
2021/08/31 03:34:39;;;;;;;;;;;;;;;;;;;;;
2021/08/31 03:37:50;;;;;;;79.22;48.85;;;13.80;99.90;;;;;;5026237;28;20085;-83
2021/08/31 03:40:32;;;;;;;73.53;47.25;;;13.90;99.90;;;;;;5033373;23;20065;-80
2021/08/31 03:43:01;;;;;;;70.65;47.75;;;13.90;99.90;;;;;;5016163;28;20548;-80
2021/08/31 03:45:35;;;;;;;75.20;49.35;;;13.90;99.90;;;;;;5026383;28;20112;-82
2021/08/31 03:48:14;;;;;;;72.82;46.92;;;13.90;99.90;;;;;;5030392;28;20045;-82
2021/08/31 03:50:41;;;;;;;78.55;48.88;;;13.90;99.90;;;;;;5024618;23;20050;-81
2021/08/31 03:53:08;;;;;;;73.80;48.47;;;13.90;99.90;;;;;;5004901;28;20070;-83
2021/08/31 03:55:38;;;;;;;75.43;48.03;;;13.90;99.90;;;;;;5003279;28;20073;-82
2021/08/31 03:58:07;;;;;;;77.55;48.70;;;13.90;99.90;;;;;;5004156;28;20046;-83
2021/08/31 04:00:39;;;;;;;80.53;49.17;;;13.90;99.90;;;;;;5004933;28;20050;-83
2021/08/31 04:03:14;;;;;;;80.65;49.45;;;13.80;99.90;;;;;;5005615;28;20054;-83
2021/08/31 04:05:41;;;;;;;76.70;49.05;;;13.80;99.90;;;;;;5005282;28;20072;-82
2021/08/31 04:08:08;;;;;;;77.78;49.83;;;13.80;99.90;;;;;;5004385;28;20065;-82
2021/08/31 04:10:37;;;;;;;74.05;49.15;;;13.80;99.90;;;;;;5005259;28;20081;-82
2021/08/31 04:13:06;;;;;;;78.43;49.72;;;13.80;99.90;;;;;;5002047;28;20046;-82
2021/08/31 04:15:36;;;;;;;79.85;50.42;;;13.90;99.90;;;;;;5001863;28;20054;-81
2021/08/31 04:18:09;;;;;;;83.38;51.45;;;13.90;99.90;;;;;;5002385;28;20093;-80
2021/08/31 04:20:36;;;;;;;81.53;51.58;;;13.90;99.90;;;;;;5002403;28;20050;-81
2021/08/31 04:23:03;;;;;;;90.82;50.50;;;13.90;99.90;;;;;;5006359;28;20042;-82
2021/08/31 04:25:30;;;;;;;81.40;52.33;;;13.90;99.90;;;;;;5008625;28;20153;-82
2021/08/31 04:27:59;;;;;;;82.28;52.50;;;13.90;99.90;;;;;;5008514;28;20050;-84
2021/08/31 04:30:26;;;;;;;85.05;53.20;;;13.90;99.90;;;;;;5006992;28;20141;-82
2021/08/31 04:32:53;;;;;;;82.57;53.17;;;14.00;99.90;;;;;;5007344;28;20081;-81
2021/08/31 04:35:21;;;;;;;87.22;53.65;;;14.00;99.90;;;;;;5008441;28;20055;-83
2021/08/31 04:37:48;;;;;;;88.65;54.13;;;14.00;99.90;;;;;;5008409;28;20054;-80
2021/08/31 04:40:15;;;;;;;102.38;56.83;;;14.10;99.90;;;;;;5006407;28;20105;-80
2021/08/31 04:42:42;;;;;;;103.82;58.33;;;14.20;99.90;;;;;;5000373;28;20054;-79
2021/08/31 04:45:11;;;;;;;108.40;60.08;;;14.20;99.90;;;;;;4998837;28;20475;-81
2021/08/31 04:47:38;;;;;;;117.68;61.50;;;14.30;99.90;;;;;;5007164;28;20046;-81
2021/08/31 04:50:08;;;;;;;119.43;64.38;;;14.30;99.90;;;;;;5008953;28;20076;-82
2021/08/31 04:52:36;;;;;;;126.78;64.60;;;14.40;99.90;;;;;;5003476;28;20486;-80
2021/08/31 04:55:03;;;;;;;118.32;64.18;;;14.30;99.90;;;;;;5001007;28;20093;-78
2021/08/31 04:57:32;;;;;;;126.20;66.60;;;14.40;99.90;;;;;;5004919;28;20072;-82
2021/08/31 05:00:12;;;;;;;126.53;64.78;;;14.40;99.90;;;;;;5005348;28;20546;-83
2021/08/31 05:02:41;;;;;;;121.13;63.17;;;14.40;99.90;;;;;;5006803;28;20051;-80
2021/08/31 05:05:09;;;;;;;135.10;66.18;;;14.50;99.90;;;;;;5001373;28;20495;-81
2021/08/31 05:07:37;;;;;;;126.88;64.82;;;14.50;99.90;;;;;;5000158;28;20054;-81
2021/08/31 05:10:07;;;;;;;136.00;64.38;;;14.50;99.90;;;;;;5006855;28;20070;-81
2021/08/31 05:12:36;;;;;;;128.32;67.32;;;14.60;99.90;;;;;;5011904;28;20078;-82
2021/08/31 05:15:04;;;;;;;123.20;66.43;;;14.60;99.90;;;;;;5002275;28;20046;-82
2021/08/31 05:17:34;;;;;;;129.77;66.47;;;14.70;99.90;;;;;;5006995;28;20046;-83
2021/08/31 05:20:06;;;;;;;127.60;65.57;;;14.70;99.90;;;;;;5008515;28;20077;-83
2021/08/31 05:22:36;;;;;;;135.27;65.72;;;14.80;99.90;;;;;;5009236;28;20058;-83
2021/08/31 05:25:05;;;;;;;123.72;64.68;;;14.80;99.90;;;;;;5008413;28;20542;-84
2021/08/31 05:27:34;;;;;;;130.05;65.57;;;14.90;99.90;;;;;;5007089;28;20058;-83
2021/08/31 05:43:44;;;;;;;139.52;66.57;;;15.00;99.90;;;;;;4987666;28;20046;-81
2021/08/31 05:46:11;;;;;;;149.40;67.38;;;15.10;99.90;;;;;;4998829;28;20077;-80
2021/08/31 05:48:38;;;;;;;146.43;67.68;;;15.10;99.90;;;;;;4998478;28;20082;-81
2021/08/31 05:51:08;;;;;;;164.27;70.60;;;15.20;99.90;;;;;;4999512;28;20050;-83
2021/08/31 05:53:36;;;;;;;184.85;72.82;;;15.20;99.90;;;;;;4999707;28;20050;-83
2021/08/31 05:56:03;;;;;;;170.88;72.07;;;15.20;99.90;;;;;;4999867;28;20136;-82
2021/08/31 05:58:30;;;;;;;171.25;73.32;;;15.20;99.90;;;;;;4999036;28;20141;-84
2021/08/31 06:00:56;;;;;;;172.77;71.30;;;15.30;99.90;;;;;;5000401;28;20137;-84
2021/08/31 06:03:23;;;;;;;187.77;71.50;;;15.30;99.90;;;;;;4998543;28;20084;-84
2021/08/31 06:05:50;;;;;;;183.90;72.43;;;15.30;99.90;;;;;;4999217;28;20057;-84
2021/08/31 06:08:17;;;;;;;177.88;69.85;;;15.30;99.90;;;;;;5000180;28;20133;-85
2021/08/31 06:10:46;;;;;;;182.10;72.18;;;15.30;99.90;;;;;;4999750;28;20084;-84
2021/08/31 06:13:13;;;;;;;183.18;73.15;;;15.30;99.90;;;;;;5001066;28;20116;-85
2021/08/31 06:15:40;;;;;;;187.32;72.53;;;15.30;99.90;;;;;;5003574;28;20050;-85
2021/08/31 06:18:06;;;;;;;186.13;74.18;;;15.30;99.90;;;;;;5001693;28;20069;-84
2021/08/31 06:20:33;;;;;;;175.80;72.18;;;15.30;99.90;;;;;;5000794;28;20497;-85
2021/08/31 06:23:00;;;;;;;178.68;74.28;;;15.30;99.90;;;;;;5001702;28;20077;-83
2021/08/31 06:25:27;;;;;;;183.93;72.20;;;15.30;99.90;;;;;;5001266;28;20050;-83
2021/08/31 06:27:55;;;;;;;180.93;72.68;;;15.40;99.90;;;;;;5001172;28;20109;-84
2021/08/31 06:30:22;;;;;;;176.88;71.75;;;15.40;99.90;;;;;;5000398;28;20510;-83
2021/08/31 06:32:49;;;;;;;181.40;70.65;;;15.50;99.90;;;;;;5000803;28;20078;-83
2021/08/31 06:35:16;;;;;;;170.35;69.97;;;15.50;99.90;;;;;;5005290;28;20132;-84
2021/08/31 06:37:43;;;;;;;166.98;70.57;;;15.60;99.90;;;;;;5003209;28;20050;-83
2021/08/31 06:40:12;;;;;;;175.18;72.57;;;15.50;99.90;;;;;;5000276;28;20149;-83
2021/08/31 06:42:42;;;;;;;168.80;71.70;;;15.60;99.90;;;;;;4999672;28;20323;-83
2021/08/31 06:45:12;;;;;;;166.55;67.03;;;15.60;99.90;;;;;;5000432;28;20666;-84
2021/08/31 06:47:39;;;;;;;169.38;70.43;;;15.70;99.90;;;;;;5008075;28;20110;-83
2021/08/31 06:50:13;;;;;;;161.55;66.72;;;15.60;99.90;;;;;;5011447;28;20046;-83
2021/08/31 06:52:40;;;;;;;139.70;63.72;;;15.70;99.90;;;;;;5010354;28;20077;-84
2021/08/31 06:55:07;;;;;;;146.85;67.00;;;15.70;99.90;;;;;;5002248;28;20065;-83
2021/08/31 06:57:34;;;;;;;147.98;67.75;;;15.80;99.90;;;;;;5002420;28;20050;-83
2021/08/31 07:00:13;;;;;;;144.80;65.07;;;15.80;99.90;;;;;;5015809;23;20061;-82
2021/08/31 07:02:43;;;;;;;140.25;62.75;;;15.90;99.90;;;;;;4997681;28;20119;-80
2021/08/31 07:05:11;;;;;;;144.40;63.72;;;15.90;99.90;;;;;;5006677;28;20046;-81
2021/08/31 07:07:39;;;;;;;137.45;61.30;;;16.00;99.90;;;;;;5009056;28;20046;-80
2021/08/31 07:10:06;;;;;;;132.10;59.80;;;15.90;99.90;;;;;;5006316;28;20105;-79
2021/08/31 07:12:33;;;;;;;138.98;62.67;;;15.90;99.90;;;;;;5008006;28;20057;-80
2021/08/31 07:15:00;;;;;;;137.63;63.47;;;15.90;99.90;;;;;;5005823;28;20065;-83
2021/08/31 07:17:28;;;;;;;123.18;59.38;;;16.00;99.90;;;;;;5004227;28;20047;-79
2021/08/31 07:19:55;;;;;;;127.05;60.33;;;16.00;99.90;;;;;;5005026;28;20089;-81
2021/08/31 07:22:22;;;;;;;126.63;60.17;;;16.10;99.90;;;;;;5005249;28;20050;-79
2021/08/31 07:24:48;;;;;;;134.30;61.40;;;16.20;99.90;;;;;;5002771;28;20096;-82
2021/08/31 07:27:15;;;;;;;129.88;64.05;;;16.20;99.90;;;;;;5002507;28;20110;-83
2021/08/31 07:29:42;;;;;;;116.32;59.67;;;16.30;99.90;;;;;;5002814;28;20042;-83
2021/08/31 07:32:09;;;;;;;120.63;61.03;;;16.40;99.90;;;;;;5004677;28;20278;-81
2021/08/31 07:34:39;;;;;;;115.78;59.63;;;16.40;99.90;;;;;;5006792;28;20097;-78
2021/08/31 07:37:06;;;;;;;121.03;59.75;;;16.40;99.90;;;;;;5006631;28;20399;-80
2021/08/31 07:39:33;;;;;;;107.90;56.83;;;16.40;99.90;;;;;;5007579;28;20043;-79
2021/08/31 07:42:00;;;;;;;120.53;59.30;;;16.40;99.90;;;;;;5005093;28;20088;-81
2021/08/31 07:44:30;;;;;;;113.95;58.83;;;16.50;99.90;;;;;;4998780;28;20085;-81
2021/08/31 07:46:57;;;;;;;112.25;59.03;;;16.50;99.90;;;;;;4969342;28;20059;-81
2021/08/31 07:49:24;;;;;;;109.28;57.70;;;16.50;99.90;;;;;;4977253;28;20133;-83
2021/08/31 07:51:53;;;;;;;104.07;57.60;;;16.50;99.90;;;;;;4976546;28;20541;-83
2021/08/31 07:54:20;;;;;;;100.00;57.55;;;16.50;99.90;;;;;;4976521;28;20107;-83
2021/08/31 07:56:54;;;;;;;92.82;52.15;;;16.50;99.90;;;;;;4972745;28;20126;-80
2021/08/31 07:59:21;;;;;;;91.05;53.13;;;16.50;99.90;;;;;;4974848;28;20356;-82
2021/08/31 08:01:48;;;;;;;84.68;51.90;;;16.50;99.90;;;;;;4973086;28;20062;-83
2021/08/31 08:04:14;;;;;;;86.55;53.10;;;16.50;99.90;;;;;;4974305;28;20129;-81
2021/08/31 08:06:42;;;;;;;81.65;52.33;;;16.50;99.90;;;;;;4971894;28;20050;-82
2021/08/31 08:09:11;;;;;;;84.45;51.63;;;16.60;99.90;;;;;;4973645;28;20110;-81
2021/08/31 08:11:37;;;;;;;87.57;53.72;;;16.60;99.90;;;;;;4964423;28;20083;-81
2021/08/31 08:14:05;;;;;;;88.60;53.28;;;16.60;99.90;;;;;;4972323;28;20086;-78
2021/08/31 08:16:32;;;;;;;93.05;52.58;;;16.60;99.90;;;;;;4968490;28;20058;-79
2021/08/31 08:18:59;;;;;;;83.60;52.63;;;16.60;99.90;;;;;;4977935;28;20134;-80
2021/08/31 08:21:26;;;;;;;79.38;50.47;;;16.70;99.90;;;;;;4978336;28;20066;-81
2021/08/31 08:23:54;;;;;;;79.72;51.28;;;16.70;99.90;;;;;;4967864;28;20115;-81
2021/08/31 08:26:23;;;;;;;73.95;48.05;;;16.80;99.90;;;;;;4970512;28;20456;-80
2021/08/31 08:28:49;;;;;;;75.30;50.17;;;16.80;99.90;;;;;;4977529;28;20106;-81
2021/08/31 08:31:18;;;;;;;74.90;49.75;;;16.80;99.90;;;;;;4963372;28;20103;-82
2021/08/31 08:33:45;;;;;;;73.32;47.70;;;16.90;99.90;;;;;;4962578;29;20535;-80
2021/08/31 08:36:12;;;;;;;63.33;44.80;;;16.80;99.90;;;;;;4963110;29;20086;-82
2021/08/31 08:38:39;;;;;;;61.80;43.60;;;16.80;99.90;;;;;;4964532;29;20145;-81
2021/08/31 08:41:06;;;;;;;62.15;42.97;;;16.70;99.90;;;;;;4963694;29;20105;-81
2021/08/31 08:43:36;;;;;;;54.30;40.58;;;16.70;99.90;;;;;;4964604;28;20051;-81
2021/08/31 08:46:05;;;;;;;53.70;39.30;;;16.60;99.90;;;;;;4964424;28;20062;-81
2021/08/31 08:48:33;;;;;;;52.05;38.50;;;16.60;99.90;;;;;;4964678;28;20110;-81
2021/08/31 08:51:02;;;;;;;50.33;38.38;;;16.60;99.90;;;;;;4963797;28;20051;-82
2021/08/31 08:53:30;;;;;;;56.33;39.92;;;16.60;99.90;;;;;;4964000;28;20074;-82
2021/08/31 08:56:00;;;;;;;54.47;39.20;;;16.50;99.90;;;;;;4963519;28;20055;-85
2021/08/31 08:58:27;;;;;;;49.25;37.90;;;16.40;99.90;;;;;;4964251;28;20130;-84
2021/08/31 09:01:00;;;;;;;45.80;35.22;;;16.40;99.90;;;;;;4965186;29;20055;-84
2021/08/31 09:03:27;;;;;;;;;;;16.40;99.90;;;;;;4965802;29;20060;-84
2021/08/31 09:06:10;;;;;;;50.05;34.88;;;16.40;99.90;;;;;;4969149;29;19930;-85
2021/08/31 09:08:42;;;;;;;47.35;36.92;;;16.40;99.90;;;;;;4966480;28;20047;-84
2021/08/31 09:11:21;;;;;;;52.15;39.00;;;16.40;99.90;;;;;;4970076;29;20523;-85
2021/08/31 09:13:49;;;;;;;58.03;41.50;;;16.40;99.90;;;;;;4971636;29;20051;-86
2021/08/31 09:16:27;;;;;;;48.67;37.25;;;16.40;99.90;;;;;;4966527;29;20093;-85
2021/08/31 09:18:56;;;;;;;43.78;33.28;;;16.40;99.90;;;;;;4969288;29;20090;-86
2021/08/31 09:22:15;;;;;;;43.90;33.67;;;16.50;99.90;;;;;;5012721;23;20050;-86
2021/08/31 09:25:08;;;;;;;47.22;34.83;;;16.50;99.90;;;;;;4990564;28;20060;-85
2021/08/31 09:31:06;;;;;;;51.40;37.80;;;16.50;99.90;;;;;;4988881;28;20099;-87
2021/08/31 09:33:36;;;;;;;46.80;34.78;;;16.50;99.90;;;;;;5042732;23;20045;-78
2021/08/31 09:36:09;;;;;;;45.22;33.03;;;16.50;99.90;;;;;;5004825;28;20050;-79
2021/08/31 09:38:41;;;;;;;41.47;29.55;;;16.50;99.90;;;;;;4996650;28;20059;-78
2021/08/31 09:41:09;;;;;;;40.53;31.77;;;16.50;99.90;;;;;;4996015;28;20065;-80
2021/08/31 09:43:36;;;;;;;39.70;30.00;;;16.60;99.90;;;;;;4996171;28;20133;-78
2021/08/31 09:46:03;;;;;;;39.22;29.60;;;16.70;99.90;;;;;;4995122;28;20054;-79
2021/08/31 09:48:30;;;;;;;38.33;29.92;;;16.80;99.90;;;;;;4995526;28;20085;-79
2021/08/31 09:50:58;;;;;;;34.70;28.23;;;16.90;99.90;;;;;;4995632;28;20116;-78
2021/08/31 09:53:27;;;;;;;38.88;27.80;;;16.90;99.90;;;;;;4994457;28;20418;-78
2021/08/31 09:56:07;;;;;;;31.48;25.88;;;17.00;99.90;;;;;;4996125;28;20157;-79
2021/08/31 09:58:35;;;;;;;29.65;24.75;;;17.10;99.90;;;;;;4995713;28;20487;-77
2021/08/31 10:01:02;;;;;;;33.10;25.83;;;17.20;99.90;;;;;;4994929;28;20148;-79
2021/08/31 10:03:30;;;;;;;30.00;24.73;;;17.10;99.90;;;;;;4995947;28;20137;-79
2021/08/31 10:06:00;;;;;;;30.75;23.77;;;17.20;99.90;;;;;;4993797;28;20050;-79
2021/08/31 10:08:31;;;;;;;33.20;24.27;;;17.30;99.90;;;;;;4994672;28;20105;-79
2021/08/31 10:11:00;;;;;;;30.95;22.75;;;17.30;99.90;;;;;;4994181;28;20503;-80
2021/08/31 10:13:27;;;;;;;33.88;23.48;;;17.30;99.90;;;;;;4994346;28;20060;-78
2021/08/31 10:15:57;;;;;;;29.25;22.20;;;17.30;99.90;;;;;;4994348;28;20153;-79
2021/08/31 10:18:25;;;;;;;28.20;21.35;;;17.40;99.90;;;;;;4996063;28;20110;-79
2021/08/31 10:20:56;;;;;;;26.00;21.00;;;17.60;99.90;;;;;;4998986;28;20118;-78
2021/08/31 10:23:27;;;;;;;24.92;19.90;;;17.70;99.90;;;;;;4998809;28;20133;-79
2021/08/31 10:25:54;;;;;;;26.35;20.42;;;17.80;99.90;;;;;;4998858;28;20058;-80
2021/08/31 10:28:26;;;;;;;25.23;18.80;;;17.90;99.90;;;;;;4993586;28;20141;-80
2021/08/31 10:30:54;;;;;;;25.45;19.50;;;18.00;99.90;;;;;;4994181;28;20125;-79
2021/08/31 10:33:38;;;;;;;36.22;20.40;;;18.00;99.90;;;;;;4993079;28;20573;-80
2021/08/31 10:36:10;;;;;;;25.13;18.40;;;18.10;99.90;;;;;;4993144;28;20054;-79
2021/08/31 10:38:55;;;;;;;24.13;18.77;;;18.10;99.90;;;;;;4994006;28;20054;-79
2021/08/31 10:41:44;;;;;;;25.52;19.15;;;18.20;99.90;;;;;;4994278;28;20137;-80
2021/08/31 10:44:36;;;;;;;24.95;18.63;;;18.30;99.90;;;;;;4994378;28;20054;-77
2021/08/31 10:47:12;;;;;;;28.85;19.13;;;18.40;99.90;;;;;;4998286;28;20109;-80
2021/08/31 10:50:15;;;;;;;25.17;19.55;;;18.70;99.90;;;;;;4993366;28;20134;-80
2021/08/31 10:52:43;;;;;;;;;;;18.90;99.90;;;;;;4994696;28;20054;-77
2021/08/31 10:55:41;;;;;;;25.00;19.23;;;18.90;99.90;;;;;;4993546;28;19997;-79
2021/08/31 10:58:11;;;;;;;23.88;18.98;;;19.10;99.90;;;;;;4994810;28;20051;-79
2021/08/31 11:00:49;;;;;;;27.83;18.95;;;19.30;99.90;;;;;;4994181;28;20051;-80
2021/08/31 11:03:32;;;;;;;24.90;19.45;;;19.60;99.90;;;;;;4993834;28;20133;-79
2021/08/31 11:06:16;;;;;;;;;;;19.70;99.90;;;;;;4995062;28;20082;-79
2021/08/31 11:08:43;;;;;;;22.27;17.58;;;19.90;99.90;;;;;;4995052;28;19973;-80
2021/08/31 11:11:18;;;;;;;28.02;18.27;;;20.10;99.90;;;;;;4995740;28;20046;-80
2021/08/31 11:13:54;;;;;;;20.75;16.70;;;20.10;99.90;;;;;;4994173;28;20432;-79
2021/08/31 11:16:24;;;;;;;21.88;16.13;;;20.00;99.90;;;;;;4993133;28;20055;-79
2021/08/31 11:18:52;;;;;;;18.38;15.98;;;20.00;99.90;;;;;;4993631;28;20055;-80
2021/08/31 11:21:19;;;;;;;26.38;17.55;;;20.10;99.90;;;;;;4993167;28;20054;-80
2021/08/31 11:23:46;;;;;;;23.45;19.45;;;20.10;99.90;;;;;;4993977;28;20060;-79
2021/08/31 11:26:23;;;;;;;22.40;19.05;;;20.20;99.90;;;;;;4993058;28;20054;-79
2021/08/31 11:28:51;;;;;;;22.10;18.80;;;20.30;99.90;;;;;;4994806;28;20050;-79
2021/08/31 11:31:24;;;;;;;20.40;17.52;;;20.40;99.90;;;;;;4993792;28;20054;-79
2021/08/31 11:33:52;;;;;;;23.13;18.23;;;20.70;99.90;;;;;;4997105;28;20141;-78
2021/08/31 11:36:21;;;;;;;25.02;18.55;;;20.80;99.90;;;;;;4997015;28;20082;-79
2021/08/31 11:38:50;;;;;;;24.42;18.67;;;20.90;99.90;;;;;;4997362;28;20119;-80
2021/08/31 11:41:18;;;;;;;22.52;17.33;;;20.80;99.90;;;;;;4997352;28;20102;-79
2021/08/31 11:43:48;;;;;;;23.15;16.88;;;20.80;99.90;;;;;;4996949;28;20108;-79
2021/08/31 11:46:20;;;;;;;23.17;17.92;;;20.80;99.90;;;;;;4997502;28;20118;-80
2021/08/31 11:48:47;;;;;;;19.80;16.25;;;20.90;99.90;;;;;;4997749;28;20054;-80
2021/08/31 11:51:19;;;;;;;19.45;15.57;;;21.00;99.90;;;;;;4997786;28;20137;-78
2021/08/31 11:53:48;;;;;;;18.17;14.95;;;21.10;99.90;;;;;;4997115;28;20077;-79
2021/08/31 11:56:20;;;;;;;16.95;14.05;;;21.10;99.90;;;;;;4998534;28;20186;-79
2021/08/31 11:58:48;;;;;;;17.45;12.50;;;21.20;99.90;;;;;;4997424;28;20073;-77
2021/08/31 12:01:27;;;;;;;17.73;13.32;;;21.30;99.90;;;;;;4997958;28;20529;-79
2021/08/31 12:03:54;;;;;;;19.60;12.45;;;21.30;99.90;;;;;;4997742;28;20060;-79
2021/08/31 12:06:21;;;;;;;14.95;12.30;;;21.20;99.90;;;;;;4994946;28;20129;-81
2021/08/31 12:08:49;;;;;;;15.65;12.32;;;21.20;99.90;;;;;;4995197;28;20133;-78
2021/08/31 12:11:16;;;;;;;17.20;12.90;;;21.20;99.90;;;;;;4994483;28;20137;-77
2021/08/31 12:13:44;;;;;;;15.90;12.90;;;21.30;99.90;;;;;;4994262;28;20054;-79
2021/08/31 12:16:14;;;;;;;14.35;12.55;;;21.50;99.90;;;;;;4996302;28;20106;-77
2021/08/31 12:18:41;;;;;;;19.00;13.05;;;21.60;99.90;;;;;;4994825;28;20113;-78
2021/08/31 12:21:16;;;;;;;33.50;13.95;;;21.70;99.90;;;;;;4994642;28;20502;-78
2021/08/31 12:23:44;;;;;;;23.13;12.35;;;21.90;99.90;;;;;;4994177;28;20137;-78
2021/08/31 12:26:11;;;;;;;17.17;11.85;;;22.10;99.90;;;;;;4994247;28;20081;-80
2021/08/31 12:28:59;;;;;;;15.70;11.65;;;22.20;99.90;;;;;;4996654;28;20137;-80
2021/08/31 12:31:27;;;;;;;57.60;14.88;;;22.20;99.90;;;;;;4996196;28;20054;-79
2021/08/31 12:33:54;;;;;;;14.77;11.02;;;22.10;99.90;;;;;;4996348;28;20052;-78
2021/08/31 12:36:31;;;;;;;15.32;10.75;;;22.00;99.90;;;;;;4995855;28;20137;-79
2021/08/31 12:38:59;;;;;;;18.58;10.75;;;21.90;99.90;;;;;;4995711;28;20133;-79
2021/08/31 12:41:32;;;;;;;17.50;11.50;;;22.00;99.90;;;;;;4996043;28;20093;-79
2021/08/31 12:44:02;;;;;;;12.65;10.68;;;22.00;99.90;;;;;;4994470;28;20061;-80
2021/08/31 12:46:32;;;;;;;13.07;10.57;;;21.90;99.90;;;;;;4995856;28;20054;-80
2021/08/31 12:49:04;;;;;;;12.27;9.88;;;22.00;99.90;;;;;;4996702;28;20053;-79
2021/08/31 12:51:33;;;;;;;12.77;10.30;;;22.00;99.90;;;;;;4995733;28;20411;-79
2021/08/31 12:54:00;;;;;;;14.77;10.43;;;21.70;99.90;;;;;;4996608;28;20058;-79
2021/08/31 12:56:28;;;;;;;14.07;10.40;;;21.70;99.90;;;;;;4995664;28;20069;-78
2021/08/31 12:59:05;;;;;;;12.80;9.95;;;21.80;99.90;;;;;;4995533;28;20122;-79
2021/08/31 13:01:51;;;;;;;12.88;10.55;;;21.90;99.90;;;;;;4994940;28;20501;-79